Schenectady, NY (12008)

5:33 AM EDT on July 24, 2016 (GMT -0400)
GE Volunteers | | Change Station

Elev 350 ft 42.83 °N, 73.88 °W | Updated 1 second ago

Shallow Fog
Shallow Fog
60.3 °F
Feels Like 60.3 °F
N
0.0
Wind Variable Wind from SW
Gusts 0.0 mph

Today
High -- | Low -- °F
--% Chance of Precip.
Yesterday
High -- | Low -- °F
Precip. -- in
Pressure 29.96 in
Visibility 10.0 miles
Clouds Few 1500 ft
Dew Point 59 °F
Humidity 95%
Rainfall 0.00 in
Snow Depth Not available.
5:39 AM 8:24 PM
Waning Gibbous, 78% visible
METAR KALB 240851Z 00000KT 10SM MIFG FEW015 16/15 A2996 RMK AO2 SLP145 MIFG SW T01610150 58000
Pressure 29.96 in
Visibility 10.0 miles
Clouds Few 1500 ft
Dew Point 59 °F
Humidity 95%
Rainfall 0.00 in
Snow Depth Not available.
5:39 AM 8:24 PM
Waning Gibbous, 78% visible
METAR KALB 240851Z 00000KT 10SM MIFG FEW015 16/15 A2996 RMK AO2 SLP145 MIFG SW T01610150 58000

10-Day Weather Forecast

Almanac

Astronomy

Jul. 24, 2016 Rise Set
Actual Time
Civil Twilight
Nautical Twilight
Astronomical Twilight
Moon
Length of Visible Light
Length of Day
Tomorrow will be .
, % of the Moon is Illuminated

Today's Extremes

State Highs State Lows

Community

WunderPhotos

Upload Photos

1,927,042 photos uploaded!

WunderBlog® & News

Nearby

Air Quality

  Air Quality AQ Index Pollutant
Not available.

Snow Depth

Station Depth Elevation

Earthquake Activity

City Distance Mag. Time & Date
Minimum magnitude displayed is 2.5.

Coastal Water Temperatures

Place Temperature

Stations

Nearby Weather Stations

Station Location Temp. Windchill Dew Point Humidity Wind Precip. Elev Updated Type
                   

Watches & Warnings

There are currently no watches in effect.